createdAt,value
2019-01-14T05:00:38.868Z,0
2019-01-14T05:04:06.721Z,0
2019-01-14T05:07:34.602Z,0
2019-01-14T05:11:02.466Z,0
2019-01-14T05:14:30.313Z,0
2019-01-14T05:17:58.180Z,0
2019-01-14T05:21:26.092Z,0
2019-01-14T05:24:54.014Z,0
2019-01-14T05:28:22.413Z,0
2019-01-14T05:31:50.281Z,0
2019-01-14T05:35:19.193Z,0
2019-01-14T05:38:47.438Z,0
2019-01-14T05:42:15.540Z,0
2019-01-14T05:45:43.593Z,0
2019-01-14T05:49:11.837Z,0
2019-01-14T05:52:39.927Z,0
2019-01-14T05:56:07.793Z,0
2019-01-14T05:59:36.643Z,0
2019-01-14T06:03:04.504Z,0
2019-01-14T06:06:32.440Z,0
2019-01-14T06:10:00.335Z,0
2019-01-14T06:13:28.167Z,0
2019-01-14T06:16:56.048Z,0
2019-01-14T06:20:23.889Z,0
2019-01-14T06:23:51.759Z,0
2019-01-14T06:27:19.620Z,0
2019-01-14T06:30:47.517Z,0
2019-01-14T06:34:15.386Z,0
2019-01-14T06:37:43.258Z,0
2019-01-14T06:41:12.109Z,0
2019-01-14T06:44:39.973Z,0
2019-01-14T06:48:08.828Z,0
2019-01-14T06:51:36.758Z,0
2019-01-14T06:55:04.625Z,0
2019-01-14T06:58:33.477Z,0
2019-01-14T07:02:01.337Z,0
2019-01-14T07:05:30.194Z,0
2019-01-14T07:08:58.065Z,0
2019-01-14T07:12:25.972Z,0
2019-01-14T07:15:53.838Z,0
2019-01-14T07:19:21.698Z,5.625
2019-01-14T07:22:49.567Z,5.625
2019-01-14T07:26:17.414Z,5.625
2019-01-14T07:29:45.281Z,11.25
2019-01-14T07:33:13.193Z,16.875
2019-01-14T07:36:41.042Z,16.875
2019-01-14T07:40:09.898Z,16.875
2019-01-14T07:43:37.758Z,16.875
2019-01-14T07:47:07.591Z,22.5
2019-01-14T07:50:36.441Z,28.125
2019-01-14T07:54:04.377Z,28.125
2019-01-14T07:57:32.226Z,33.75
2019-01-14T08:01:00.091Z,33.75
2019-01-14T08:04:27.954Z,45
2019-01-14T08:07:55.813Z,50.625
2019-01-14T08:11:23.681Z,45
2019-01-14T08:14:51.633Z,45
2019-01-14T08:18:19.442Z,61.875
2019-01-14T08:21:47.313Z,67.5
2019-01-14T08:25:15.180Z,56.25
2019-01-14T08:28:43.031Z,95.625
2019-01-14T08:32:10.890Z,56.25
2019-01-14T08:35:38.747Z,61.875
2019-01-14T08:39:06.619Z,56.25
2019-01-14T08:42:35.476Z,67.5
2019-01-14T08:46:03.342Z,84.375
2019-01-14T08:49:31.202Z,90
2019-01-14T08:52:59.068Z,95.625
2019-01-14T08:56:27.936Z,95.625
2019-01-14T08:59:55.855Z,106.875
2019-01-14T09:03:23.735Z,90
2019-01-14T09:06:51.597Z,84.375
2019-01-14T09:10:19.446Z,95.625
2019-01-14T09:13:47.314Z,90
2019-01-14T09:17:15.184Z,95.625
2019-01-14T09:20:43.110Z,101.25
2019-01-14T09:24:10.964Z,101.25
2019-01-14T09:27:38.829Z,123.75
2019-01-14T09:31:06.699Z,146.25
2019-01-14T09:34:34.549Z,129.375
2019-01-14T09:38:02.418Z,112.5
2019-01-14T09:41:30.284Z,180
2019-01-14T09:44:58.189Z,168.75
2019-01-14T09:48:26.070Z,174.375
2019-01-14T09:51:53.948Z,163.125
2019-01-14T09:55:21.841Z,168.75
2019-01-14T09:58:50.691Z,151.875
2019-01-14T10:02:18.549Z,168.75
2019-01-14T10:05:46.499Z,196.875
2019-01-14T10:09:14.364Z,180
2019-01-14T10:12:43.235Z,185.625
2019-01-14T10:16:11.100Z,157.5
2019-01-14T10:19:38.955Z,225
2019-01-14T10:23:06.823Z,196.875
2019-01-14T10:26:35.730Z,213.75
2019-01-14T10:30:03.594Z,219.375
2019-01-14T10:33:31.476Z,163.125
2019-01-14T10:36:59.333Z,185.625
2019-01-14T10:40:27.211Z,196.875
2019-01-14T10:43:55.063Z,180
2019-01-14T10:47:22.982Z,213.75
2019-01-14T10:50:50.837Z,168.75
2019-01-14T10:54:18.707Z,196.875
2019-01-14T10:57:46.599Z,157.5
2019-01-14T11:01:14.459Z,196.875
2019-01-14T11:04:43.328Z,129.375
2019-01-14T11:08:11.206Z,78.75
2019-01-14T11:11:39.183Z,123.75
2019-01-14T11:15:07.096Z,123.75
2019-01-14T11:18:34.991Z,112.5
2019-01-14T11:22:02.878Z,180
2019-01-14T11:25:30.820Z,191.25
2019-01-14T11:28:59.637Z,202.5
2019-01-14T11:32:27.905Z,219.375
2019-01-14T11:35:55.769Z,1237.5
2019-01-14T11:39:24.647Z,838.125
2019-01-14T11:42:52.528Z,410.625
2019-01-14T11:46:20.379Z,967.5
2019-01-14T11:49:48.274Z,196.875
2019-01-14T11:53:16.240Z,298.125
2019-01-14T11:56:44.115Z,1462.5
2019-01-14T12:00:12.005Z,365.625
2019-01-14T12:03:39.919Z,382.5
2019-01-14T12:07:07.792Z,1721.25
2019-01-14T12:10:35.696Z,1681.875
2019-01-14T12:14:03.585Z,275.625
2019-01-14T12:17:31.449Z,326.25
2019-01-14T12:20:59.344Z,275.625
2019-01-14T12:24:27.211Z,1642.5
2019-01-14T12:27:55.296Z,438.75
2019-01-14T12:31:23.147Z,1721.25
2019-01-14T12:34:51.111Z,1850.625
2019-01-14T12:38:19.031Z,1845
2019-01-14T12:41:51.106Z,1816.875
2019-01-14T12:45:17.738Z,1546.875
2019-01-14T12:48:46.620Z,1051.875
2019-01-14T12:52:14.506Z,1946.25
2019-01-14T12:55:42.472Z,1558.125
2019-01-14T12:59:10.330Z,185.625
2019-01-14T13:02:38.182Z,1518.75
2019-01-14T13:06:06.232Z,860.625
2019-01-14T13:09:36.110Z,1665
2019-01-14T13:13:05.057Z,1631.25
2019-01-14T13:16:34.973Z,225
2019-01-14T13:20:03.886Z,213.75
2019-01-14T13:23:34.669Z,191.25
2019-01-14T13:27:03.332Z,174.375
2019-01-14T13:30:31.196Z,731.25
2019-01-14T13:33:59.094Z,1158.75
2019-01-14T13:37:28.008Z,1040.625
2019-01-14T13:40:56.904Z,225
2019-01-14T13:44:24.792Z,180
2019-01-14T13:47:52.681Z,174.375
2019-01-14T13:51:20.538Z,185.625
2019-01-14T13:54:48.398Z,157.5
2019-01-14T13:58:16.476Z,140.625
2019-01-14T14:01:44.343Z,140.625
2019-01-14T14:05:12.220Z,146.25
2019-01-14T14:08:40.102Z,118.125
2019-01-14T14:12:07.967Z,101.25
2019-01-14T14:15:35.839Z,90
2019-01-14T14:19:04.095Z,90
2019-01-14T14:22:31.946Z,90
2019-01-14T14:25:59.822Z,84.375
2019-01-14T14:29:27.738Z,78.75
2019-01-14T14:32:56.613Z,73.125
2019-01-14T14:36:24.475Z,61.875
2019-01-14T14:39:52.406Z,56.25
2019-01-14T14:43:20.227Z,50.625
2019-01-14T14:46:49.082Z,45
2019-01-14T14:50:16.962Z,39.375
2019-01-14T14:53:44.828Z,33.75
2019-01-14T14:57:12.673Z,28.125
2019-01-14T15:00:40.540Z,28.125
2019-01-14T15:04:08.536Z,22.5
2019-01-14T15:07:36.401Z,16.875
2019-01-14T15:11:04.270Z,11.25
2019-01-14T15:14:32.138Z,11.25
2019-01-14T15:18:00.024Z,5.625
2019-01-14T15:21:27.878Z,5.625
2019-01-14T15:24:55.810Z,0
2019-01-14T15:28:24.674Z,0
2019-01-14T15:31:52.516Z,0
2019-01-14T15:35:20.380Z,0
2019-01-14T15:38:48.288Z,0
2019-01-14T15:42:16.236Z,0
2019-01-14T15:45:44.191Z,0
2019-01-14T15:49:12.052Z,0
2019-01-14T15:52:40.024Z,0
2019-01-14T15:56:07.915Z,0
2019-01-14T15:59:35.903Z,0
2019-01-14T16:03:03.759Z,0
2019-01-14T16:06:32.708Z,0
2019-01-14T16:10:00.673Z,0
2019-01-14T16:13:28.571Z,0
2019-01-14T16:16:56.444Z,0
2019-01-14T16:20:24.327Z,0
2019-01-14T16:23:53.196Z,0
2019-01-14T16:27:22.220Z,0
2019-01-14T16:30:50.064Z,0
2019-01-14T16:34:17.921Z,0
2019-01-14T16:37:45.803Z,0
2019-01-14T16:41:13.670Z,0
2019-01-14T16:44:41.587Z,0
2019-01-14T16:48:09.499Z,0
2019-01-14T16:51:37.434Z,0
2019-01-14T16:55:05.306Z,0
2019-01-14T16:58:34.150Z,0
2019-01-14T17:02:02.031Z,0
2019-01-14T17:05:29.914Z,0
2019-01-14T17:08:57.773Z,0
2019-01-14T17:12:25.700Z,0
2019-01-14T17:15:53.598Z,0
2019-01-14T17:19:22.465Z,0
2019-01-14T17:22:50.341Z,0
2019-01-14T17:26:18.234Z,0
2019-01-14T17:29:46.105Z,0
2019-01-14T17:33:13.995Z,0
2019-01-14T17:36:41.871Z,0
2019-01-14T17:40:09.733Z,0
2019-01-14T17:43:37.625Z,0
2019-01-14T17:47:05.614Z,0
2019-01-14T17:50:33.470Z,0
2019-01-14T17:54:01.360Z,0
2019-01-14T17:57:29.251Z,0
2019-01-14T18:00:57.122Z,0
2019-01-14T18:04:25.005Z,0
2019-01-14T18:07:54.634Z,0
2019-01-14T18:11:22.486Z,0
2019-01-14T18:14:50.370Z,0
2019-01-14T18:18:19.248Z,0
2019-01-14T18:21:47.091Z,0
2019-01-14T18:25:14.963Z,0
2019-01-14T18:28:42.842Z,0
2019-01-14T18:32:10.694Z,0
2019-01-14T18:35:38.566Z,0
2019-01-14T18:39:06.492Z,0
2019-01-14T18:42:34.366Z,0
2019-01-14T18:46:02.242Z,0
2019-01-14T18:49:31.185Z,0
2019-01-14T18:52:59.044Z,0
2019-01-14T18:56:26.912Z,0
2019-01-14T18:59:54.816Z,0
2019-01-14T19:03:22.701Z,0
2019-01-14T19:06:50.579Z,0
2019-01-14T19:10:19.460Z,0
2019-01-14T19:13:47.327Z,0
2019-01-14T19:17:15.200Z,0
2019-01-14T19:20:43.168Z,0
2019-01-14T19:24:11.964Z,0
2019-01-14T19:27:39.840Z,0
2019-01-14T19:31:09.696Z,0
2019-01-14T19:34:37.559Z,0
2019-01-14T19:38:05.432Z,0
2019-01-14T19:41:33.392Z,0
2019-01-14T19:45:01.217Z,0
2019-01-14T19:48:29.082Z,0
2019-01-14T19:51:56.961Z,0
2019-01-14T19:55:24.821Z,0
2019-01-14T19:58:52.686Z,0
2019-01-14T20:02:20.560Z,0
2019-01-14T20:05:48.494Z,0
2019-01-14T20:09:16.352Z,0
2019-01-14T20:12:44.235Z,0
2019-01-14T20:16:12.119Z,0
2019-01-14T20:19:39.986Z,0
2019-01-14T20:23:07.859Z,0
2019-01-14T20:26:35.804Z,0
2019-01-14T20:30:03.708Z,0
2019-01-14T20:33:31.578Z,0
2019-01-14T20:36:59.456Z,0
2019-01-14T20:40:27.326Z,0
2019-01-14T20:43:55.188Z,0
2019-01-14T20:47:23.179Z,0
2019-01-14T20:50:51.013Z,0
2019-01-14T20:54:18.878Z,0
2019-01-14T20:57:46.754Z,0
2019-01-14T21:01:15.752Z,0
2019-01-14T21:04:43.890Z,0
2019-01-14T21:08:11.874Z,0
2019-01-14T21:11:39.783Z,0
2019-01-14T21:15:07.670Z,0
2019-01-14T21:18:35.673Z,0
2019-01-14T21:22:03.559Z,0
2019-01-14T21:25:31.455Z,0
2019-01-14T21:28:59.946Z,0
2019-01-14T21:32:29.946Z,0
2019-01-14T21:35:58.903Z,0
2019-01-14T21:39:26.813Z,0
2019-01-14T21:42:54.700Z,0
2019-01-14T21:46:22.591Z,0
2019-01-14T21:49:50.492Z,0
2019-01-14T21:53:18.410Z,0
2019-01-14T21:56:46.266Z,0
2019-01-14T22:00:14.172Z,0
2019-01-14T22:03:42.076Z,0
2019-01-14T22:07:09.972Z,0
2019-01-14T22:10:37.867Z,0
2019-01-14T22:14:05.837Z,0
2019-01-14T22:17:33.708Z,0
2019-01-14T22:21:01.607Z,0
2019-01-14T22:24:29.485Z,0
2019-01-14T22:27:57.379Z,0
2019-01-14T22:31:25.248Z,0
2019-01-14T22:34:53.343Z,0
2019-01-14T22:38:21.129Z,0
2019-01-14T22:41:49.995Z,0
2019-01-14T22:45:17.907Z,0
2019-01-14T22:48:45.799Z,0
2019-01-14T22:52:13.689Z,0
2019-01-14T22:55:41.581Z,0
2019-01-14T22:59:09.511Z,0
